createdAt,value
2022-12-24T00:02:20.439Z,17.44
2022-12-24T00:04:47.034Z,17.39
2022-12-24T00:07:13.709Z,17.44
2022-12-24T00:09:40.287Z,17.40
2022-12-24T00:12:07.072Z,17.26
2022-12-24T00:14:33.695Z,17.25
2022-12-24T00:17:00.505Z,17.17
2022-12-24T00:19:27.166Z,17.17
2022-12-24T00:21:53.827Z,17.22
2022-12-24T00:24:20.342Z,17.27
2022-12-24T00:26:46.923Z,17.32
2022-12-24T00:29:13.504Z,17.31
2022-12-24T00:31:40.176Z,17.38
2022-12-24T00:34:08.702Z,17.43
2022-12-24T00:36:35.367Z,17.45
2022-12-24T00:39:02.007Z,17.48
2022-12-24T00:41:29.396Z,17.53
2022-12-24T00:43:58.281Z,17.51
2022-12-24T00:46:26.041Z,17.53
2022-12-24T00:48:52.839Z,17.52
2022-12-24T00:51:20.323Z,17.52
2022-12-24T00:53:47.006Z,17.55
2022-12-24T00:56:13.641Z,17.55
2022-12-24T00:58:40.330Z,17.53
2022-12-24T01:01:07.208Z,17.50
2022-12-24T01:03:37.105Z,17.47
2022-12-24T01:06:22.929Z,17.47
2022-12-24T01:08:52.713Z,17.46
2022-12-24T01:11:19.329Z,17.48
2022-12-24T01:13:45.871Z,17.49
2022-12-24T01:16:17.119Z,17.50
2022-12-24T01:18:43.804Z,17.50
2022-12-24T01:21:10.420Z,17.50
2022-12-24T01:23:37.114Z,17.50
2022-12-24T01:26:04.340Z,17.50
2022-12-24T01:28:31.801Z,17.45
2022-12-24T01:30:58.344Z,17.48
2022-12-24T01:33:27.763Z,17.49
2022-12-24T01:35:54.313Z,17.49
2022-12-24T01:38:20.910Z,17.51
2022-12-24T01:41:05.833Z,17.51
2022-12-24T01:43:32.663Z,17.50
2022-12-24T01:46:01.894Z,17.49
2022-12-24T01:48:34.202Z,17.52
2022-12-24T01:51:02.726Z,17.53
2022-12-24T01:53:29.768Z,17.54
2022-12-24T01:55:56.574Z,17.53
2022-12-24T01:58:24.359Z,17.52
2022-12-24T02:00:50.868Z,17.52
2022-12-24T02:03:18.038Z,17.51
2022-12-24T02:05:47.732Z,17.50
2022-12-24T02:08:15.287Z,17.53
2022-12-24T02:10:41.934Z,17.51
2022-12-24T02:13:08.687Z,17.52
2022-12-24T02:15:42.641Z,17.53
2022-12-24T02:18:20.877Z,17.52
2022-12-24T02:21:16.830Z,17.55
2022-12-24T02:23:53.554Z,17.51
2022-12-24T02:26:32.100Z,17.53
2022-12-24T02:29:04.637Z,17.54
2022-12-24T02:31:40.538Z,17.52
2022-12-24T02:34:33.922Z,17.61
2022-12-24T02:37:19.286Z,17.58
2022-12-24T02:39:58.514Z,17.43
2022-12-24T02:42:28.319Z,17.48
2022-12-24T02:45:02.091Z,17.50
2022-12-24T02:47:30.995Z,17.45
2022-12-24T02:50:01.350Z,17.47
2022-12-24T02:52:32.832Z,17.45
2022-12-24T02:55:01.665Z,17.46
2022-12-24T02:57:37.158Z,17.50
2022-12-24T03:00:13.310Z,17.49
2022-12-24T03:02:48.017Z,17.54
2022-12-24T03:05:21.483Z,17.52
2022-12-24T03:08:20.418Z,17.48
2022-12-24T03:10:57.850Z,17.50
2022-12-24T03:13:25.081Z,17.41
2022-12-24T03:15:51.992Z,17.43
2022-12-24T03:18:20.983Z,17.46
2022-12-24T03:21:13.820Z,17.41
2022-12-24T03:23:40.789Z,17.43
2022-12-24T03:26:09.174Z,17.42
2022-12-24T03:28:37.396Z,17.44
2022-12-24T03:31:04.874Z,17.46
2022-12-24T03:33:31.895Z,17.43
2022-12-24T03:35:58.485Z,17.45
2022-12-24T03:38:25.083Z,17.48
2022-12-24T03:40:51.958Z,17.46
2022-12-24T03:43:18.657Z,17.44
2022-12-24T03:45:45.362Z,17.45
2022-12-24T03:48:11.964Z,17.43
2022-12-24T03:50:38.515Z,17.48
2022-12-24T03:53:05.112Z,17.43
2022-12-24T03:55:31.688Z,17.41
2022-12-24T03:57:58.311Z,17.41
2022-12-24T04:00:24.927Z,17.42
2022-12-24T04:02:51.697Z,17.35
2022-12-24T04:05:19.330Z,17.39
2022-12-24T04:07:46.670Z,17.41
2022-12-24T04:10:13.547Z,17.41
2022-12-24T04:12:40.226Z,17.33
2022-12-24T04:15:07.334Z,17.31
2022-12-24T04:17:34.002Z,17.29
2022-12-24T04:20:00.588Z,17.20
2022-12-24T04:22:27.193Z,17.16
2022-12-24T04:24:53.762Z,17.12
2022-12-24T04:27:22.928Z,17.14
2022-12-24T04:29:51.865Z,17.13
2022-12-24T04:32:18.487Z,17.14
2022-12-24T04:34:45.139Z,17.09
2022-12-24T04:37:11.681Z,17.10
2022-12-24T04:39:38.242Z,17.09
2022-12-24T04:42:04.895Z,17.08
2022-12-24T04:44:31.521Z,17.06
2022-12-24T04:46:58.053Z,16.99
2022-12-24T04:49:24.735Z,16.99
2022-12-24T04:51:51.245Z,16.98
2022-12-24T04:54:17.859Z,17.06
2022-12-24T04:56:44.488Z,17.07
2022-12-24T04:59:11.128Z,16.96
2022-12-24T05:01:37.813Z,17.00
2022-12-24T05:04:04.590Z,16.97
2022-12-24T05:06:31.997Z,16.95
2022-12-24T05:08:59.308Z,16.93
2022-12-24T05:11:25.901Z,16.82
2022-12-24T05:13:52.570Z,16.81
2022-12-24T05:16:19.917Z,16.88
2022-12-24T05:18:46.816Z,16.92
2022-12-24T05:21:14.684Z,16.93
2022-12-24T05:23:59.673Z,16.91
2022-12-24T05:26:29.408Z,16.87
2022-12-24T05:28:56.916Z,16.91
2022-12-24T05:31:25.094Z,16.89
2022-12-24T05:33:51.810Z,16.90
2022-12-24T05:36:18.350Z,16.81
2022-12-24T05:38:44.999Z,16.83
2022-12-24T05:41:11.630Z,16.77
2022-12-24T05:43:38.574Z,16.75
2022-12-24T05:46:07.116Z,16.74
2022-12-24T05:48:34.153Z,16.77
2022-12-24T05:51:03.940Z,16.73
2022-12-24T05:53:30.528Z,16.69
2022-12-24T05:56:02.563Z,16.65
2022-12-24T05:58:29.133Z,16.61
2022-12-24T06:00:55.692Z,16.66
2022-12-24T06:03:22.317Z,16.48
2022-12-24T06:05:48.901Z,16.50
2022-12-24T06:08:15.545Z,16.57
2022-12-24T06:10:42.076Z,16.57
2022-12-24T06:13:08.704Z,16.53
2022-12-24T06:15:36.082Z,16.42
2022-12-24T06:18:03.240Z,16.34
2022-12-24T06:20:30.074Z,16.34
2022-12-24T06:22:56.741Z,16.25
2022-12-24T06:25:23.260Z,16.11
2022-12-24T06:27:49.934Z,16.01
2022-12-24T06:30:18.542Z,15.90
2022-12-24T06:32:45.378Z,16.06
2022-12-24T06:35:12.334Z,15.98
2022-12-24T06:37:38.976Z,16.05
2022-12-24T06:40:05.704Z,16.04
2022-12-24T06:42:32.315Z,16.05
2022-12-24T06:45:02.284Z,16.11
2022-12-24T06:47:34.415Z,16.06
2022-12-24T06:50:00.955Z,15.98
2022-12-24T06:52:27.592Z,16.00
2022-12-24T06:54:54.168Z,15.95
2022-12-24T06:57:20.916Z,15.72
2022-12-24T06:59:47.493Z,15.83
2022-12-24T07:02:14.273Z,15.79
2022-12-24T07:04:40.826Z,15.86
2022-12-24T07:07:07.447Z,15.79
2022-12-24T07:09:33.991Z,15.78
2022-12-24T07:12:00.614Z,15.77
2022-12-24T07:14:27.227Z,15.85
2022-12-24T07:16:58.866Z,15.93
2022-12-24T07:19:26.025Z,16.03
2022-12-24T07:21:52.689Z,16.02
2022-12-24T07:24:20.242Z,16.17
2022-12-24T07:26:46.909Z,15.96
2022-12-24T07:29:13.513Z,15.99
2022-12-24T07:31:40.247Z,16.05
2022-12-24T07:34:06.896Z,16.01
2022-12-24T07:36:33.418Z,16.06
2022-12-24T07:39:00.104Z,16.24
2022-12-24T07:41:26.668Z,16.36
2022-12-24T07:43:53.469Z,16.45
2022-12-24T07:46:20.139Z,16.64
2022-12-24T07:48:46.763Z,16.75
2022-12-24T07:51:13.430Z,16.83
2022-12-24T07:53:40.161Z,16.82
2022-12-24T07:56:12.380Z,16.55
2022-12-24T07:58:39.546Z,16.60
2022-12-24T08:01:06.263Z,16.60
2022-12-24T08:03:33.080Z,16.68
2022-12-24T08:05:59.799Z,16.68
2022-12-24T08:08:26.407Z,16.82
2022-12-24T08:10:53.222Z,16.92
2022-12-24T08:13:19.924Z,16.84
2022-12-24T08:15:46.539Z,16.93
2022-12-24T08:18:13.131Z,16.99
2022-12-24T08:20:40.496Z,17.01
2022-12-24T08:23:07.737Z,17.17
2022-12-24T08:25:34.784Z,17.15
2022-12-24T08:28:01.550Z,17.31
2022-12-24T08:30:28.169Z,17.42
2022-12-24T08:32:54.899Z,17.48
2022-12-24T08:35:21.560Z,17.53
2022-12-24T08:37:48.149Z,17.58
2022-12-24T08:40:14.760Z,17.62
2022-12-24T08:42:41.495Z,17.62
2022-12-24T08:45:08.343Z,17.58
2022-12-24T08:47:34.936Z,17.52
2022-12-24T08:50:01.517Z,17.68
2022-12-24T08:52:28.121Z,17.73
2022-12-24T08:54:55.495Z,17.85
2022-12-24T08:57:22.127Z,17.96
2022-12-24T08:59:48.674Z,17.83
2022-12-24T09:02:16.640Z,17.97
2022-12-24T09:04:43.467Z,18.13
2022-12-24T09:07:10.801Z,18.19
2022-12-24T09:09:38.184Z,18.20
2022-12-24T09:12:07.963Z,18.26
2022-12-24T09:14:34.660Z,18.21
2022-12-24T09:17:01.263Z,18.35
2022-12-24T09:19:28.119Z,18.38
2022-12-24T09:21:54.709Z,18.48
2022-12-24T09:24:21.344Z,18.51
2022-12-24T09:26:55.510Z,18.48
2022-12-24T09:29:24.129Z,18.50
2022-12-24T09:31:50.942Z,18.42
2022-12-24T09:34:17.657Z,18.52
2022-12-24T09:36:44.239Z,18.59
2022-12-24T09:39:10.941Z,18.70
2022-12-24T09:41:55.967Z,18.63
2022-12-24T09:44:22.599Z,18.64
2022-12-24T09:46:50.249Z,18.71
2022-12-24T09:49:20.213Z,18.74
2022-12-24T09:51:51.577Z,18.77
2022-12-24T09:54:22.785Z,18.62
2022-12-24T09:56:49.843Z,18.84
2022-12-24T09:59:26.909Z,18.85
2022-12-24T10:01:54.658Z,18.90
2022-12-24T10:04:23.968Z,18.92
2022-12-24T10:06:53.628Z,18.85
2022-12-24T10:09:32.172Z,19.05
2022-12-24T10:12:14.033Z,19.28
2022-12-24T10:14:57.042Z,19.36
2022-12-24T10:17:58.892Z,19.57
2022-12-24T10:20:31.254Z,19.67
2022-12-24T10:23:03.881Z,19.58
2022-12-24T10:25:34.450Z,19.66
2022-12-24T10:28:02.384Z,19.79
2022-12-24T10:30:29.035Z,19.84
2022-12-24T10:32:55.995Z,19.90
2022-12-24T10:35:25.720Z,19.88
2022-12-24T10:37:53.471Z,19.89
2022-12-24T10:40:20.089Z,20.02
2022-12-24T10:42:51.266Z,19.87
2022-12-24T10:45:20.732Z,20.07
2022-12-24T10:47:49.740Z,20.10
2022-12-24T10:50:28.593Z,20.16
2022-12-24T10:52:59.895Z,20.31
2022-12-24T10:55:28.255Z,20.39
2022-12-24T10:58:01.268Z,20.37
2022-12-24T11:00:35.319Z,20.48
2022-12-24T11:03:11.733Z,20.63
2022-12-24T11:05:38.709Z,20.62
2022-12-24T11:08:20.302Z,20.71
2022-12-24T11:10:57.339Z,20.79
2022-12-24T11:13:37.515Z,20.88
2022-12-24T11:16:07.935Z,20.88
2022-12-24T11:18:36.531Z,20.87
2022-12-24T11:21:03.610Z,20.97
2022-12-24T11:23:30.867Z,20.94
2022-12-24T11:25:58.406Z,20.96
2022-12-24T11:28:24.987Z,21.02
2022-12-24T11:31:18.406Z,21.01
2022-12-24T11:33:49.305Z,21.11
2022-12-24T11:36:17.225Z,21.05
2022-12-24T11:38:52.419Z,21.16
2022-12-24T11:41:19.019Z,21.14
2022-12-24T11:43:47.880Z,21.13
2022-12-24T11:46:19.359Z,21.17
2022-12-24T11:48:46.582Z,21.18
2022-12-24T11:51:26.508Z,21.22
2022-12-24T11:53:59.861Z,21.18
2022-12-24T11:56:29.603Z,21.27
2022-12-24T11:58:59.109Z,21.26
2022-12-24T12:01:44.085Z,21.38
2022-12-24T12:04:13.079Z,21.46
2022-12-24T12:06:45.566Z,21.49
2022-12-24T12:09:14.292Z,21.53
2022-12-24T12:11:42.414Z,21.47
2022-12-24T12:14:14.818Z,21.51
2022-12-24T12:17:07.717Z,21.54
2022-12-24T12:19:46.526Z,21.65
2022-12-24T12:22:28.377Z,21.67
2022-12-24T12:24:56.900Z,21.70
2022-12-24T12:27:38.026Z,21.64
2022-12-24T12:30:06.395Z,21.71
2022-12-24T12:32:55.328Z,21.77
2022-12-24T12:35:22.224Z,21.84
2022-12-24T12:37:54.144Z,21.86
2022-12-24T12:40:21.019Z,21.91
2022-12-24T12:42:58.590Z,21.88
2022-12-24T12:45:35.228Z,21.99
2022-12-24T12:48:01.838Z,22.06
2022-12-24T12:50:33.412Z,22.09
2022-12-24T12:53:12.178Z,22.14
2022-12-24T12:55:38.768Z,22.01
2022-12-24T12:58:10.912Z,21.94
2022-12-24T13:00:39.620Z,21.90
2022-12-24T13:03:24.407Z,21.88
2022-12-24T13:06:09.862Z,21.88
2022-12-24T13:08:55.058Z,21.81
2022-12-24T13:11:33.830Z,21.77
2022-12-24T13:14:00.406Z,21.72
2022-12-24T13:16:33.973Z,21.75
2022-12-24T13:19:19.267Z,21.75
2022-12-24T13:21:48.946Z,21.70
2022-12-24T13:24:20.795Z,21.75
2022-12-24T13:27:02.633Z,21.74
2022-12-24T13:29:31.374Z,21.72
2022-12-24T13:32:16.529Z,21.68
2022-12-24T13:34:47.406Z,21.68
2022-12-24T13:37:21.908Z,21.66
2022-12-24T13:40:02.489Z,21.64
2022-12-24T13:42:47.653Z,21.64
2022-12-24T13:45:29.774Z,21.63
2022-12-24T13:48:08.554Z,21.58
2022-12-24T13:50:41.055Z,21.58
2022-12-24T13:53:20.922Z,21.55
2022-12-24T13:55:55.338Z,21.53
2022-12-24T13:58:23.896Z,21.49
2022-12-24T14:00:56.311Z,21.48
2022-12-24T14:03:36.104Z,21.46
2022-12-24T14:06:05.861Z,21.44
2022-12-24T14:08:38.060Z,21.43
2022-12-24T14:11:06.679Z,21.42
2022-12-24T14:13:39.314Z,21.41
2022-12-24T14:16:06.238Z,21.41
2022-12-24T14:18:35.657Z,21.37
2022-12-24T14:21:03.033Z,21.35
2022-12-24T14:23:35.849Z,21.35
2022-12-24T14:26:03.728Z,21.34
2022-12-24T14:28:34.169Z,21.38
2022-12-24T14:31:01.676Z,21.37
2022-12-24T14:33:29.159Z,21.36
2022-12-24T14:35:55.819Z,21.37
2022-12-24T14:38:22.995Z,21.38
2022-12-24T14:41:08.441Z,21.40
2022-12-24T14:43:55.348Z,21.40
2022-12-24T14:46:31.143Z,21.37
2022-12-24T14:49:00.780Z,21.36
2022-12-24T14:51:43.883Z,21.36
2022-12-24T14:54:28.933Z,21.34
2022-12-24T14:57:10.873Z,21.33
2022-12-24T14:59:46.418Z,21.29
2022-12-24T15:02:31.620Z,21.27
2022-12-24T15:05:04.311Z,21.24
2022-12-24T15:07:31.959Z,21.23
2022-12-24T15:09:58.559Z,21.21
2022-12-24T15:12:25.510Z,21.20
2022-12-24T15:14:52.134Z,21.14
2022-12-24T15:17:18.851Z,21.15
2022-12-24T15:19:47.600Z,21.08
2022-12-24T15:22:22.519Z,21.06
2022-12-24T15:24:49.232Z,20.98
2022-12-24T15:27:22.789Z,20.96
2022-12-24T15:29:51.031Z,20.93
2022-12-24T15:32:18.783Z,20.87
2022-12-24T15:34:46.774Z,20.82
2022-12-24T15:37:23.745Z,20.77
2022-12-24T15:39:55.135Z,20.71
2022-12-24T15:42:22.934Z,20.67
2022-12-24T15:44:58.358Z,20.63
2022-12-24T15:47:27.965Z,20.61
2022-12-24T15:49:54.798Z,20.52
2022-12-24T15:52:24.713Z,20.52
2022-12-24T15:54:57.459Z,20.49
2022-12-24T15:57:26.871Z,20.48
2022-12-24T15:59:54.692Z,20.39
2022-12-24T16:02:27.599Z,20.39
2022-12-24T16:04:55.217Z,20.36
2022-12-24T16:07:47.546Z,20.33
2022-12-24T16:10:26.561Z,20.29
2022-12-24T16:12:53.205Z,20.24
2022-12-24T16:15:19.900Z,20.21
2022-12-24T16:17:49.187Z,20.17
2022-12-24T16:20:21.512Z,20.15
2022-12-24T16:22:49.013Z,20.10
2022-12-24T16:25:15.590Z,20.02
2022-12-24T16:27:42.182Z,19.99
2022-12-24T16:30:09.771Z,19.96
2022-12-24T16:32:38.075Z,19.89
2022-12-24T16:35:06.564Z,19.86
2022-12-24T16:37:33.177Z,19.83
2022-12-24T16:40:00.387Z,19.82
2022-12-24T16:42:45.761Z,19.78
2022-12-24T16:45:17.439Z,19.73
2022-12-24T16:47:50.962Z,19.67
2022-12-24T16:50:18.409Z,19.65
2022-12-24T16:52:44.992Z,19.61
2022-12-24T16:55:15.154Z,19.57
2022-12-24T16:57:42.279Z,19.54
2022-12-24T17:00:20.029Z,19.53
2022-12-24T17:02:47.992Z,19.49
2022-12-24T17:05:14.803Z,19.46
2022-12-24T17:07:44.017Z,19.42
2022-12-24T17:10:12.074Z,19.38
2022-12-24T17:12:38.671Z,19.35
2022-12-24T17:15:05.606Z,19.35
2022-12-24T17:17:32.210Z,19.31
2022-12-24T17:19:58.868Z,19.28
2022-12-24T17:22:27.368Z,19.27
2022-12-24T17:24:54.652Z,19.26
2022-12-24T17:27:21.404Z,19.25
2022-12-24T17:29:48.018Z,19.23
2022-12-24T17:32:14.603Z,19.21
2022-12-24T17:34:41.152Z,19.21
2022-12-24T17:37:07.868Z,19.20
2022-12-24T17:39:34.520Z,19.17
2022-12-24T17:42:01.270Z,19.17
2022-12-24T17:44:27.845Z,19.18
2022-12-24T17:46:54.715Z,19.16
2022-12-24T17:49:21.363Z,19.14
2022-12-24T17:51:48.441Z,19.11
2022-12-24T17:54:15.033Z,19.08
2022-12-24T17:56:41.656Z,19.05
2022-12-24T17:59:08.244Z,19.03
2022-12-24T18:01:34.931Z,19.00
2022-12-24T18:04:02.306Z,18.98
2022-12-24T18:06:29.177Z,18.92
2022-12-24T18:08:56.096Z,18.92
2022-12-24T18:11:24.965Z,18.85
2022-12-24T18:13:51.865Z,18.86
2022-12-24T18:16:24.681Z,18.81
2022-12-24T18:18:51.896Z,18.75
2022-12-24T18:21:19.689Z,18.77
2022-12-24T18:23:47.277Z,18.73
2022-12-24T18:26:15.468Z,18.74
2022-12-24T18:28:42.213Z,18.74
2022-12-24T18:31:10.984Z,18.71
2022-12-24T18:33:38.205Z,18.67
2022-12-24T18:36:04.981Z,18.64
2022-12-24T18:38:32.206Z,18.60
2022-12-24T18:41:03.152Z,18.59
2022-12-24T18:43:29.754Z,18.59
2022-12-24T18:45:56.357Z,18.58
2022-12-24T18:48:22.948Z,18.59
2022-12-24T18:50:56.945Z,18.58
2022-12-24T18:53:23.665Z,18.55
2022-12-24T18:55:50.258Z,18.56
2022-12-24T18:58:16.881Z,18.55
2022-12-24T19:00:43.783Z,18.59
2022-12-24T19:03:10.568Z,18.57
2022-12-24T19:05:37.150Z,18.57
2022-12-24T19:08:22.162Z,18.57
2022-12-24T19:10:53.105Z,18.58
2022-12-24T19:13:19.685Z,18.58
2022-12-24T19:15:46.260Z,18.58
2022-12-24T19:18:12.887Z,18.54
2022-12-24T19:20:40.071Z,18.50
2022-12-24T19:23:07.255Z,18.48
2022-12-24T19:25:34.534Z,18.40
2022-12-24T19:28:01.840Z,18.43
2022-12-24T19:30:28.412Z,18.39
2022-12-24T19:32:55.027Z,18.38
2022-12-24T19:35:21.624Z,18.35
2022-12-24T19:37:48.188Z,18.31
2022-12-24T19:40:14.748Z,18.19
2022-12-24T19:42:41.406Z,18.19
2022-12-24T19:45:08.354Z,18.05
2022-12-24T19:47:34.936Z,17.91
2022-12-24T19:50:01.532Z,17.94
2022-12-24T19:52:28.155Z,17.89
2022-12-24T19:54:54.671Z,17.92
2022-12-24T19:57:21.332Z,17.89
2022-12-24T19:59:47.870Z,17.80
2022-12-24T20:02:14.606Z,17.85
2022-12-24T20:04:41.359Z,17.82
2022-12-24T20:07:07.922Z,17.92
2022-12-24T20:09:34.472Z,17.90
2022-12-24T20:12:01.153Z,17.90
2022-12-24T20:14:28.687Z,17.83
2022-12-24T20:16:55.496Z,17.77
2022-12-24T20:19:22.439Z,17.82
2022-12-24T20:21:49.112Z,17.92
2022-12-24T20:24:15.789Z,17.94
2022-12-24T20:26:42.445Z,17.97
2022-12-24T20:29:09.814Z,17.94
2022-12-24T20:31:37.205Z,17.90
2022-12-24T20:34:05.395Z,17.87
2022-12-24T20:36:32.127Z,17.82
2022-12-24T20:38:59.167Z,17.83
2022-12-24T20:41:26.517Z,17.81
2022-12-24T20:43:53.069Z,17.81
2022-12-24T20:46:20.720Z,17.80
2022-12-24T20:48:47.397Z,17.67
2022-12-24T20:51:23.385Z,17.64
2022-12-24T20:53:52.471Z,17.61
2022-12-24T20:56:19.121Z,17.60
2022-12-24T20:58:45.995Z,17.57
2022-12-24T21:01:15.671Z,17.58
2022-12-24T21:03:42.803Z,17.58
2022-12-24T21:06:09.417Z,17.59
2022-12-24T21:08:36.182Z,17.57
2022-12-24T21:11:21.428Z,17.57
2022-12-24T21:13:48.286Z,17.48
2022-12-24T21:16:14.875Z,17.42
2022-12-24T21:18:41.807Z,17.41
2022-12-24T21:21:08.360Z,17.48
2022-12-24T21:23:36.341Z,17.47
2022-12-24T21:26:04.418Z,17.51
2022-12-24T21:28:31.417Z,17.52
2022-12-24T21:30:58.056Z,17.45
2022-12-24T21:33:24.732Z,17.50
2022-12-24T21:35:56.878Z,17.47
2022-12-24T21:38:23.429Z,17.50
2022-12-24T21:41:06.488Z,17.46
2022-12-24T21:43:34.318Z,17.49
2022-12-24T21:46:01.339Z,17.53
2022-12-24T21:48:46.781Z,17.51
2022-12-24T21:51:16.085Z,17.53
2022-12-24T21:54:01.333Z,17.58
2022-12-24T21:56:27.910Z,17.61
2022-12-24T21:58:54.453Z,17.62
2022-12-24T22:01:21.131Z,17.58
2022-12-24T22:03:49.424Z,17.48
2022-12-24T22:06:35.390Z,17.51
2022-12-24T22:09:28.676Z,17.50
2022-12-24T22:11:55.234Z,17.42
2022-12-24T22:14:21.829Z,17.42
2022-12-24T22:16:48.602Z,17.42
2022-12-24T22:19:15.400Z,17.39
2022-12-24T22:21:41.986Z,17.38
2022-12-24T22:24:09.111Z,17.38
2022-12-24T22:26:35.722Z,17.34
2022-12-24T22:29:04.349Z,17.30
2022-12-24T22:31:32.578Z,17.26
2022-12-24T22:33:59.648Z,17.25
2022-12-24T22:36:26.554Z,17.18
2022-12-24T22:38:53.087Z,17.15
2022-12-24T22:41:20.335Z,17.16
2022-12-24T22:43:49.012Z,17.16
2022-12-24T22:46:15.787Z,17.11
2022-12-24T22:48:43.643Z,17.12
2022-12-24T22:51:11.767Z,17.11
2022-12-24T22:53:38.325Z,17.13
2022-12-24T22:56:05.650Z,17.13
2022-12-24T22:58:32.407Z,17.12
2022-12-24T23:00:59.078Z,17.13
2022-12-24T23:03:28.561Z,17.11
2022-12-24T23:05:56.626Z,17.08
2022-12-24T23:08:23.325Z,17.12
2022-12-24T23:10:49.949Z,17.14
2022-12-24T23:13:35.232Z,17.14
2022-12-24T23:16:06.816Z,17.16
2022-12-24T23:18:33.661Z,17.17
2022-12-24T23:21:04.136Z,17.11
2022-12-24T23:23:36.439Z,17.16
2022-12-24T23:26:10.986Z,17.17
2022-12-24T23:28:38.146Z,17.14
2022-12-24T23:31:05.059Z,17.10
2022-12-24T23:33:31.736Z,17.08
2022-12-24T23:35:58.361Z,17.04
2022-12-24T23:38:25.132Z,17.05
2022-12-24T23:40:55.033Z,17.00
2022-12-24T23:43:21.620Z,16.96
2022-12-24T23:45:48.679Z,16.94
2022-12-24T23:48:15.651Z,16.93
2022-12-24T23:50:43.240Z,16.90
2022-12-24T23:53:10.169Z,16.87
2022-12-24T23:55:37.114Z,16.87
2022-12-24T23:58:04.252Z,16.87
